Time;durP1;ratioP1;P1;durP2;ratioP2;P2;SDS_P1;SDS_P2;PMS_P1;PMS_P2;Temp;Humidity;BMP_temperature;BMP_pressure;BME280_temperature;BME280_humidity;BME280_pressure;Samples;Min_cycle;Max_cycle;Signal;HPM_P1;HPM_P2
2022/07/11 00:00:46;;;;;;;6.32;2.35;;;15.90;99.90;;;;;;4973195;28;20668;-81
2022/07/11 00:03:32;;;;;;;6.53;2.20;;;15.90;99.90;;;;;;4975545;28;20062;-81
2022/07/11 00:06:18;;;;;;;3.97;2.00;;;15.90;99.90;;;;;;4957842;28;20046;-81
2022/07/11 00:09:04;;;;;;;5.95;2.25;;;15.80;99.90;;;;;;4975549;28;20507;-80
2022/07/11 00:11:51;;;;;;;9.10;2.70;;;15.80;99.90;;;;;;4977471;28;20055;-79
2022/07/11 00:14:39;;;;;;;8.25;2.70;;;15.80;99.90;;;;;;4975833;28;20412;-81
2022/07/11 00:17:25;;;;;;;6.70;2.60;;;15.80;99.90;;;;;;4945222;28;20062;-81
2022/07/11 00:20:11;;;;;;;7.70;2.70;;;15.80;99.90;;;;;;4975002;28;20082;-81
2022/07/11 00:22:57;;;;;;;8.43;2.80;;;15.70;99.90;;;;;;4959922;28;20161;-81
2022/07/11 00:25:43;;;;;;;5.88;2.70;;;15.80;99.90;;;;;;4945063;28;20055;-80
2022/07/11 00:28:30;;;;;;;8.05;3.38;;;15.70;99.90;;;;;;4975203;28;20065;-80
2022/07/11 00:31:16;;;;;;;6.40;3.03;;;15.80;99.90;;;;;;4976324;28;20055;-80
2022/07/11 00:34:02;;;;;;;7.75;2.03;;;15.80;99.90;;;;;;4958511;28;20047;-81
2022/07/11 00:36:48;;;;;;;4.72;2.00;;;15.70;99.90;;;;;;4958583;28;20043;-81
2022/07/11 00:39:34;;;;;;;7.32;2.60;;;15.80;99.90;;;;;;4973848;28;20426;-80
2022/07/11 00:42:21;;;;;;;6.43;2.47;;;15.70;99.90;;;;;;4977869;28;20046;-81
2022/07/11 00:45:07;;;;;;;5.15;2.40;;;15.80;99.90;;;;;;4974920;28;20055;-80
2022/07/11 00:47:55;;;;;;;4.93;2.38;;;15.80;99.90;;;;;;4983066;28;20418;-81
2022/07/11 00:50:42;;;;;;;7.75;2.70;;;15.70;99.90;;;;;;4994372;28;20050;-82
2022/07/11 00:53:29;;;;;;;5.15;2.10;;;15.80;99.90;;;;;;4994644;28;20054;-81
2022/07/11 00:56:16;;;;;;;6.18;2.20;;;15.70;99.90;;;;;;4994812;28;20051;-81
2022/07/11 00:59:03;;;;;;;7.22;2.30;;;15.80;99.90;;;;;;4997375;28;20046;-80
2022/07/11 01:01:49;;;;;;;3.97;1.92;;;15.70;99.90;;;;;;4993009;28;20125;-82
2022/07/11 01:04:36;;;;;;;5.55;1.75;;;15.70;99.90;;;;;;4993827;28;20089;-80
2022/07/11 01:07:22;;;;;;;7.35;1.65;;;15.70;99.90;;;;;;4994222;28;20038;-82
2022/07/11 01:10:08;;;;;;;5.28;1.85;;;15.70;99.90;;;;;;4981281;28;20138;-80
2022/07/11 01:12:55;;;;;;;10.95;1.90;;;15.70;99.90;;;;;;4976539;28;20062;-80
2022/07/11 01:15:41;;;;;;;7.10;1.48;;;15.70;99.90;;;;;;4993289;28;20054;-82
2022/07/11 01:18:27;;;;;;;3.92;1.10;;;15.70;99.90;;;;;;4995341;28;20067;-81
2022/07/11 01:21:40;;;;;;;3.83;1.08;;;15.70;99.90;;;;;;4993074;28;20376;-81
2022/07/11 01:24:26;;;;;;;2.80;1.10;;;15.70;99.90;;;;;;4993827;28;20050;-80
2022/07/11 01:27:13;;;;;;;4.75;1.23;;;15.70;99.90;;;;;;4978341;28;20046;-83
2022/07/11 01:29:59;;;;;;;6.78;1.25;;;15.70;99.90;;;;;;4976654;28;20046;-81
2022/07/11 01:32:45;;;;;;;3.70;1.08;;;15.70;99.90;;;;;;4977091;28;20061;-81
2022/07/11 01:35:31;;;;;;;5.53;1.30;;;15.60;99.90;;;;;;4976327;28;20478;-82
2022/07/11 01:38:17;;;;;;;3.72;1.05;;;15.60;99.90;;;;;;4963135;28;20057;-81
2022/07/11 01:41:04;;;;;;;5.38;1.05;;;15.60;99.90;;;;;;4975635;28;20053;-82
2022/07/11 01:43:50;;;;;;;4.97;1.25;;;15.60;99.90;;;;;;4994746;28;20061;-82
2022/07/11 01:46:36;;;;;;;3.25;0.85;;;15.60;99.90;;;;;;4981014;28;20054;-81
2022/07/11 01:49:22;;;;;;;6.35;1.52;;;15.60;99.90;;;;;;4993144;28;20054;-81
2022/07/11 01:52:09;;;;;;;2.90;1.30;;;15.70;99.90;;;;;;4975783;28;20459;-82
2022/07/11 01:54:55;;;;;;;5.75;1.27;;;15.70;99.90;;;;;;4979857;28;20057;-82
2022/07/11 01:57:42;;;;;;;4.63;1.25;;;15.70;99.90;;;;;;4994579;28;20043;-81
2022/07/11 02:00:28;;;;;;;4.50;1.92;;;15.70;99.90;;;;;;4993723;28;20407;-81
2022/07/11 02:03:14;;;;;;;4.43;1.27;;;15.70;99.90;;;;;;4974874;28;20120;-82
2022/07/11 02:06:00;;;;;;;4.07;1.10;;;15.70;99.90;;;;;;4993837;28;20141;-81
2022/07/11 02:08:46;;;;;;;4.75;1.05;;;15.80;99.90;;;;;;4994008;28;20054;-81
2022/07/11 02:11:33;;;;;;;2.58;1.08;;;15.70;99.90;;;;;;4977935;28;20054;-81
2022/07/11 02:14:19;;;;;;;2.60;0.77;;;15.80;99.90;;;;;;4975811;28;20137;-82
2022/07/11 02:17:05;;;;;;;3.08;0.70;;;15.70;99.90;;;;;;4976609;28;20055;-82
2022/07/11 02:19:51;;;;;;;3.05;0.90;;;15.70;99.90;;;;;;4978202;28;20245;-81
2022/07/11 02:22:37;;;;;;;2.45;0.70;;;15.70;99.90;;;;;;4976396;28;20178;-80
2022/07/11 02:25:23;;;;;;;3.28;0.80;;;15.70;99.90;;;;;;4993012;28;20056;-80
2022/07/11 02:28:11;;;;;;;2.17;0.77;;;15.70;99.90;;;;;;4993022;28;20112;-81
2022/07/11 02:30:57;;;;;;;3.33;0.90;;;15.70;99.90;;;;;;4976544;28;20429;-81
2022/07/11 02:33:43;;;;;;;2.95;0.77;;;15.70;99.90;;;;;;4975997;28;20062;-82
2022/07/11 02:36:29;;;;;;;3.22;1.30;;;15.70;99.90;;;;;;4962256;28;20627;-83
2022/07/11 02:39:16;;;;;;;2.42;0.85;;;15.70;99.90;;;;;;4993127;28;20046;-81
2022/07/11 02:42:02;;;;;;;3.33;1.13;;;15.70;99.90;;;;;;4975418;28;20053;-81
2022/07/11 02:44:49;;;;;;;5.43;0.90;;;15.70;99.90;;;;;;4975266;28;20086;-81
2022/07/11 02:47:38;;;;;;;4.43;1.13;;;15.70;99.90;;;;;;4974554;28;20100;-81
2022/07/11 02:50:24;;;;;;;3.97;0.80;;;15.70;99.90;;;;;;4992352;28;20057;-83
2022/07/11 02:53:10;;;;;;;4.68;0.90;;;15.70;99.90;;;;;;4994170;28;20050;-83
2022/07/11 02:55:56;;;;;;;4.80;0.93;;;15.70;99.90;;;;;;4992802;28;20050;-82
2022/07/11 02:58:42;;;;;;;4.55;0.85;;;15.70;99.90;;;;;;4991763;28;20057;-83
2022/07/11 03:01:28;;;;;;;4.03;1.13;;;15.70;99.90;;;;;;4992645;28;20046;-80
2022/07/11 03:04:14;;;;;;;5.13;1.08;;;15.70;99.90;;;;;;4991846;28;20090;-80
2022/07/11 03:07:01;;;;;;;4.35;0.70;;;15.70;99.90;;;;;;4961585;28;20046;-81
2022/07/11 03:09:47;;;;;;;2.75;0.70;;;15.70;99.90;;;;;;4991627;28;20082;-80
2022/07/11 03:12:33;;;;;;;3.80;0.90;;;15.70;99.90;;;;;;4975792;28;20058;-80
2022/07/11 03:15:21;;;;;;;4.93;1.00;;;15.70;99.90;;;;;;4996432;28;20108;-81
2022/07/11 03:18:07;;;;;;;5.32;0.82;;;15.70;99.90;;;;;;4997466;28;20762;-81
2022/07/11 03:20:53;;;;;;;3.00;0.95;;;15.70;99.90;;;;;;4978296;28;20054;-81
2022/07/11 03:23:39;;;;;;;4.25;1.00;;;15.70;99.90;;;;;;4996062;28;20050;-80
2022/07/11 03:26:26;;;;;;;3.03;0.80;;;15.70;99.90;;;;;;4982433;28;20422;-82
2022/07/11 03:29:12;;;;;;;4.10;0.70;;;15.70;99.90;;;;;;4979163;28;20054;-81
2022/07/11 03:31:58;;;;;;;2.60;0.70;;;15.70;99.90;;;;;;4996824;28;20050;-80
2022/07/11 03:35:40;;;;;;;2.80;0.70;;;15.70;99.90;;;;;;4995046;28;20483;-82
2022/07/11 03:37:50;;;;;;;2.80;0.80;;;15.70;99.90;;;;;;4996422;28;20502;-81
2022/07/11 03:40:38;;;;;;;3.28;1.05;;;15.70;99.90;;;;;;4979425;28;20503;-80
2022/07/11 03:43:24;;;;;;;3.85;1.10;;;15.70;99.90;;;;;;4984321;28;20052;-80
2022/07/11 03:46:10;;;;;;;4.75;1.00;;;15.70;99.90;;;;;;4998166;28;20042;-81
2022/07/11 03:48:56;;;;;;;3.28;0.80;;;15.70;99.90;;;;;;4997506;28;20121;-80
2022/07/11 03:51:43;;;;;;;3.30;0.90;;;15.70;99.90;;;;;;4978581;28;20138;-81
2022/07/11 03:54:29;;;;;;;3.88;0.93;;;15.70;99.90;;;;;;4994861;28;20065;-81
2022/07/11 03:57:15;;;;;;;2.70;0.55;;;15.70;99.90;;;;;;4977878;28;20757;-81
2022/07/11 04:00:04;;;;;;;2.45;0.70;;;15.70;99.90;;;;;;4995688;28;20065;-82
2022/07/11 04:02:50;;;;;;;1.98;0.70;;;15.60;99.90;;;;;;4996368;28;20144;-81
2022/07/11 04:05:37;;;;;;;5.25;1.08;;;15.70;99.90;;;;;;4980133;28;20766;-80
2022/07/11 04:08:23;;;;;;;5.65;0.63;;;15.70;99.90;;;;;;4977994;28;20472;-81
2022/07/11 04:11:10;;;;;;;1.73;0.57;;;15.70;99.90;;;;;;4977854;28;20053;-81
2022/07/11 04:13:56;;;;;;;1.08;0.50;;;15.70;99.90;;;;;;4996141;28;20494;-81
2022/07/11 04:16:42;;;;;;;2.50;0.50;;;15.70;99.90;;;;;;4995420;28;20057;-82
2022/07/11 04:19:28;;;;;;;3.28;0.45;;;15.70;99.90;;;;;;4995493;28;20054;-82
2022/07/11 04:22:15;;;;;;;2.15;0.60;;;15.70;99.90;;;;;;4980295;28;20086;-82
2022/07/11 04:25:01;;;;;;;3.92;0.68;;;15.70;99.90;;;;;;4980583;28;20145;-82
2022/07/11 04:27:47;;;;;;;2.58;0.60;;;15.70;99.90;;;;;;4976457;28;20126;-81
2022/07/11 04:30:33;;;;;;;2.67;0.85;;;15.70;99.90;;;;;;4978421;28;20065;-82
2022/07/11 04:33:19;;;;;;;4.05;0.80;;;15.80;99.90;;;;;;4964931;28;20054;-82
2022/07/11 04:36:06;;;;;;;2.20;0.40;;;15.80;99.90;;;;;;4994513;28;20053;-82
2022/07/11 04:38:52;;;;;;;2.90;0.77;;;15.80;99.90;;;;;;4995600;28;20105;-82
2022/07/11 04:41:39;;;;;;;1.85;0.55;;;15.80;99.90;;;;;;4994018;28;20537;-82
2022/07/11 04:44:25;;;;;;;3.80;0.52;;;15.90;99.90;;;;;;4977739;28;20051;-83
2022/07/11 04:47:11;;;;;;;3.35;0.80;;;15.80;99.90;;;;;;4978141;28;20125;-82
2022/07/11 04:49:57;;;;;;;3.30;0.75;;;15.90;99.90;;;;;;4980917;28;20061;-83
2022/07/11 04:52:43;;;;;;;3.65;0.90;;;15.90;99.90;;;;;;4978331;28;20054;-82
2022/07/11 04:55:29;;;;;;;2.25;0.60;;;15.90;99.90;;;;;;4994096;28;20057;-82
2022/07/11 04:58:15;;;;;;;2.90;0.77;;;15.90;99.90;;;;;;4978485;28;20125;-82
2022/07/11 05:01:02;;;;;;;2.53;0.82;;;16.00;99.90;;;;;;4995693;28;20074;-82
2022/07/11 05:03:48;;;;;;;3.72;0.93;;;16.00;99.90;;;;;;4994189;28;20053;-82
2022/07/11 05:06:34;;;;;;;6.35;1.58;;;16.00;99.90;;;;;;4978802;28;20116;-82
2022/07/11 05:09:21;;;;;;;2.25;0.60;;;16.00;99.90;;;;;;4994084;28;20050;-81
2022/07/11 05:12:08;;;;;;;4.05;0.80;;;16.00;99.90;;;;;;4993526;28;20049;-82
2022/07/11 05:14:55;;;;;;;4.93;0.88;;;16.10;99.90;;;;;;4995650;28;20047;-80
2022/07/11 05:17:41;;;;;;;2.92;0.80;;;16.10;99.90;;;;;;4979970;28;20053;-83
2022/07/11 05:20:27;;;;;;;1.52;0.50;;;16.00;99.90;;;;;;4995569;28;20098;-81
2022/07/11 05:23:13;;;;;;;1.42;0.40;;;16.10;99.90;;;;;;4995834;28;20046;-82
2022/07/11 05:25:59;;;;;;;1.63;0.50;;;16.10;99.90;;;;;;4977452;28;20094;-82
2022/07/11 05:28:46;;;;;;;3.30;0.70;;;16.10;99.90;;;;;;4993300;28;20062;-82
2022/07/11 05:31:33;;;;;;;3.63;0.75;;;16.10;99.90;;;;;;4992812;28;20039;-82
2022/07/11 05:34:20;;;;;;;2.30;0.60;;;16.10;99.90;;;;;;4994132;28;20388;-81
2022/07/11 05:37:06;;;;;;;4.82;0.60;;;16.00;99.90;;;;;;4976343;28;20057;-81
2022/07/11 05:39:52;;;;;;;3.83;0.65;;;16.00;99.90;;;;;;4993864;28;20046;-82
2022/07/11 05:42:38;;;;;;;3.28;0.80;;;16.00;99.90;;;;;;4976151;28;20058;-82
2022/07/11 05:45:25;;;;;;;3.65;0.70;;;16.00;99.90;;;;;;4995121;28;20053;-81
2022/07/11 05:48:11;;;;;;;2.08;0.70;;;16.00;99.90;;;;;;4992999;28;20054;-81
2022/07/11 05:50:57;;;;;;;4.40;1.13;;;16.00;99.90;;;;;;4993845;28;20054;-81
2022/07/11 05:53:43;;;;;;;4.00;0.90;;;16.00;99.90;;;;;;4992941;28;20137;-81
2022/07/11 05:56:29;;;;;;;1.98;0.75;;;16.00;99.90;;;;;;4976825;28;20069;-80
2022/07/11 05:59:15;;;;;;;2.88;0.82;;;16.00;99.90;;;;;;4978252;28;20046;-81
2022/07/11 06:02:03;;;;;;;4.05;1.13;;;16.10;99.90;;;;;;4994353;28;20112;-81
2022/07/11 06:04:49;;;;;;;2.40;0.63;;;16.10;99.90;;;;;;4992985;28;20138;-81
2022/07/11 06:10:40;;;;;;;4.67;0.57;;;16.20;99.90;;;;;;4993045;28;20059;-82
2022/07/11 06:13:29;;;;;;;2.17;0.82;;;16.30;99.90;;;;;;4994198;28;20494;-82
2022/07/11 06:16:16;;;;;;;1.95;0.70;;;16.30;99.90;;;;;;4993409;28;20391;-81
2022/07/11 06:19:02;;;;;;;5.35;0.70;;;16.40;99.90;;;;;;4974494;28;20062;-82
2022/07/11 06:21:48;;;;;;;1.73;0.70;;;16.40;99.90;;;;;;4993055;28;20050;-82
2022/07/11 06:24:35;;;;;;;3.85;0.70;;;16.50;99.90;;;;;;4978552;28;20101;-82
2022/07/11 06:27:21;;;;;;;2.53;0.80;;;16.50;99.90;;;;;;4993879;28;20061;-81
2022/07/11 06:30:07;;;;;;;4.55;0.93;;;16.60;99.90;;;;;;4961689;28;20054;-82
2022/07/11 06:32:53;;;;;;;4.05;0.60;;;16.70;99.90;;;;;;4976328;28;20525;-82
2022/07/11 06:35:40;;;;;;;2.15;0.60;;;16.70;99.90;;;;;;4995881;28;20064;-82
2022/07/11 06:38:26;;;;;;;1.95;0.70;;;16.70;99.90;;;;;;4976337;28;20108;-82
2022/07/11 06:41:12;;;;;;;1.83;0.30;;;16.80;99.90;;;;;;4975538;28;20054;-81
2022/07/11 06:43:58;;;;;;;1.48;0.30;;;16.70;99.90;;;;;;4993326;28;20084;-81
2022/07/11 06:46:44;;;;;;;1.60;0.47;;;16.80;99.90;;;;;;4976294;28;20140;-81
2022/07/11 06:49:31;;;;;;;1.90;0.30;;;16.80;99.90;;;;;;4991532;28;20188;-81
2022/07/11 06:52:17;;;;;;;2.55;0.40;;;16.70;99.90;;;;;;4978413;28;20065;-82
2022/07/11 06:55:03;;;;;;;3.85;0.52;;;16.70;99.90;;;;;;4975889;28;20379;-83
2022/07/11 06:57:50;;;;;;;5.60;1.20;;;16.60;99.90;;;;;;4978801;28;20066;-82
2022/07/11 07:00:36;;;;;;;7.22;0.90;;;16.60;99.90;;;;;;4992816;28;20050;-80
2022/07/11 07:03:22;;;;;;;3.22;0.70;;;16.60;99.90;;;;;;4974217;28;20406;-82
2022/07/11 07:06:09;;;;;;;1.60;0.40;;;16.70;99.90;;;;;;4978272;28;20054;-80
2022/07/11 07:08:55;;;;;;;3.40;0.55;;;16.70;99.90;;;;;;4993240;28;20047;-81
2022/07/11 07:11:41;;;;;;;2.65;0.40;;;16.80;99.90;;;;;;4976439;28;20050;-82
2022/07/11 07:14:27;;;;;;;2.47;0.40;;;17.00;99.90;;;;;;4993835;28;20057;-81
2022/07/11 07:17:13;;;;;;;1.02;0.20;;;17.10;99.90;;;;;;4992319;28;20053;-81
2022/07/11 07:19:59;;;;;;;0.63;0.10;;;17.20;99.90;;;;;;4975172;28;20057;-82
2022/07/11 07:22:46;;;;;;;3.35;0.40;;;17.50;99.90;;;;;;4992752;28;20054;-81
2022/07/11 07:25:32;;;;;;;2.08;0.93;;;17.60;99.90;;;;;;4974598;28;20510;-81
2022/07/11 07:28:18;;;;;;;0.68;0.20;;;17.70;99.90;;;;;;4974923;28;20061;-81
2022/07/11 07:31:04;;;;;;;1.42;0.30;;;17.90;99.90;;;;;;4991956;28;20123;-82
2022/07/11 07:33:51;;;;;;;0.75;0.25;;;18.10;99.90;;;;;;4974565;28;20047;-81
2022/07/11 07:36:37;;;;;;;5.32;0.65;;;18.10;99.90;;;;;;4993442;28;20475;-82
2022/07/11 07:39:23;;;;;;;2.17;0.30;;;18.10;99.90;;;;;;4978867;28;20450;-82
2022/07/11 07:42:09;;;;;;;1.65;0.30;;;18.10;99.90;;;;;;4992378;28;20524;-82
2022/07/11 07:44:56;;;;;;;1.60;0.20;;;18.10;99.90;;;;;;4992810;28;20475;-81
2022/07/11 07:47:42;;;;;;;1.83;0.30;;;18.10;99.90;;;;;;4960884;28;20054;-81
2022/07/11 07:50:28;;;;;;;0.88;0.15;;;18.00;99.90;;;;;;4992301;28;20047;-81
2022/07/11 07:53:15;;;;;;;1.67;0.40;;;18.10;99.90;;;;;;4992989;28;20084;-82
2022/07/11 07:56:01;;;;;;;1.88;0.25;;;18.10;99.90;;;;;;4962173;28;21039;-82
2022/07/11 07:58:48;;;;;;;2.28;0.20;;;18.10;99.90;;;;;;4979499;28;20105;-81
2022/07/11 08:01:38;;;;;;;2.15;0.30;;;18.10;99.90;;;;;;4996680;28;20053;-82
2022/07/11 08:04:24;;;;;;;1.88;0.20;;;18.00;99.90;;;;;;4994587;28;20108;-82
2022/07/11 08:07:10;;;;;;;2.00;0.30;;;17.90;99.90;;;;;;4996276;28;20107;-82
2022/07/11 08:09:57;;;;;;;1.90;0.40;;;17.90;99.90;;;;;;4995956;28;20149;-81
2022/07/11 08:12:43;;;;;;;2.15;0.35;;;18.00;99.90;;;;;;4982399;28;20046;-80
2022/07/11 08:15:29;;;;;;;2.50;0.20;;;18.10;99.90;;;;;;4994973;28;20107;-80
2022/07/11 08:18:15;;;;;;;1.80;0.40;;;18.40;99.90;;;;;;4978352;28;20046;-81
2022/07/11 08:21:02;;;;;;;1.55;0.25;;;18.50;99.90;;;;;;4996331;28;20061;-81
2022/07/11 08:23:49;;;;;;;0.82;0.20;;;18.40;99.90;;;;;;4978693;28;20104;-82
2022/07/11 08:26:35;;;;;;;2.55;0.30;;;18.40;99.90;;;;;;4995456;28;20054;-82
2022/07/11 08:29:21;;;;;;;2.67;0.22;;;18.30;99.90;;;;;;4993567;28;20123;-82
2022/07/11 08:32:07;;;;;;;1.08;0.10;;;18.30;99.90;;;;;;4996715;28;20135;-82
2022/07/11 08:34:54;;;;;;;2.47;0.30;;;18.20;99.90;;;;;;4976874;28;20046;-81
2022/07/11 08:37:40;;;;;;;0.45;0.20;;;18.40;99.90;;;;;;4976911;28;20054;-81
2022/07/11 08:40:26;;;;;;;0.75;0.20;;;18.50;99.90;;;;;;4994135;28;20056;-81
2022/07/11 08:43:15;;;;;;;0.95;0.17;;;18.60;99.90;;;;;;4977001;28;20414;-82
2022/07/11 08:46:01;;;;;;;1.50;0.20;;;18.70;99.90;;;;;;4976174;28;20046;-79
2022/07/11 08:48:48;;;;;;;3.20;0.68;;;18.90;99.90;;;;;;4995156;28;20046;-81
2022/07/11 08:51:37;;;;;;;0.98;0.38;;;19.00;99.90;;;;;;4979589;28;20050;-81
2022/07/11 08:54:24;;;;;;;1.95;0.22;;;19.00;99.90;;;;;;4994614;28;20050;-82
2022/07/11 08:57:10;;;;;;;1.55;0.30;;;19.00;99.90;;;;;;4977953;28;20084;-82
2022/07/11 08:59:58;;;;;;;0.10;0.05;;;19.00;99.90;;;;;;4993985;28;20583;-82
2022/07/11 09:02:44;;;;;;;0.88;0.25;;;19.10;99.90;;;;;;4994928;28;20375;-81
2022/07/11 09:05:32;;;;;;;1.42;0.20;;;19.30;99.90;;;;;;4977928;28;20054;-81
2022/07/11 09:08:18;;;;;;;0.93;0.28;;;19.30;99.90;;;;;;4993976;28;20070;-80
2022/07/11 09:11:04;;;;;;;2.03;0.35;;;19.30;99.90;;;;;;4975810;28;20061;-82
2022/07/11 09:13:51;;;;;;;1.40;0.32;;;19.30;99.90;;;;;;4994696;28;20050;-81
2022/07/11 09:17:01;;;;;;;0.52;0.15;;;19.30;99.90;;;;;;4978301;28;20058;-80
2022/07/11 09:19:47;;;;;;;1.27;0.47;;;19.20;99.90;;;;;;4978734;28;20054;-81
2022/07/11 09:25:44;;;;;;;0.75;0.30;;;19.40;99.90;;;;;;4993795;28;20051;-81
2022/07/11 09:28:30;;;;;;;1.30;0.25;;;19.60;99.90;;;;;;4975664;28;20184;-83
2022/07/11 09:31:17;;;;;;;0.10;0.00;;;19.90;99.90;;;;;;4994821;28;20093;-82
2022/07/11 09:34:11;;;;;;;1.33;0.15;;;20.10;99.90;;;;;;4993774;28;20043;-83
2022/07/11 09:36:57;;;;;;;0.57;0.15;;;20.30;99.90;;;;;;4994535;28;20046;-82
2022/07/11 09:39:43;;;;;;;1.33;0.25;;;20.60;99.90;;;;;;4995299;28;20050;-81
2022/07/11 09:42:55;;;;;;;0.45;0.10;;;20.70;99.90;;;;;;4993620;28;20046;-81
2022/07/11 09:45:41;;;;;;;0.55;0.30;;;20.80;99.90;;;;;;4995833;28;20062;-82
2022/07/11 09:48:29;;;;;;;0.75;0.10;;;21.00;99.90;;;;;;4976521;28;20051;-82
2022/07/11 09:51:26;;;;;;;0.63;0.20;;;20.90;99.90;;;;;;4976123;28;20572;-82
2022/07/11 09:54:12;;;;;;;3.85;0.35;;;20.90;99.90;;;;;;4978693;28;20490;-82
2022/07/11 09:56:59;;;;;;;0.50;0.10;;;20.80;99.90;;;;;;4995158;28;20069;-82
2022/07/11 09:59:55;;;;;;;0.77;0.20;;;20.80;99.90;;;;;;4993302;28;20058;-81
2022/07/11 10:02:41;;;;;;;0.88;0.25;;;20.70;99.90;;;;;;4978303;28;20207;-82
2022/07/11 10:05:28;;;;;;;1.52;0.40;;;20.60;99.90;;;;;;4976724;28;20486;-81
2022/07/11 10:08:15;;;;;;;1.23;0.22;;;20.60;99.90;;;;;;4979277;28;20171;-82
2022/07/11 10:11:02;;;;;;;0.88;0.20;;;20.60;99.90;;;;;;4983880;28;20145;-81
2022/07/11 10:13:50;;;;;;;1.00;0.20;;;20.70;99.90;;;;;;4975722;28;20057;-81
2022/07/11 10:16:56;;;;;;;1.90;0.65;;;20.50;99.90;;;;;;4976840;28;20046;-81
2022/07/11 10:20:09;;;;;;;0.22;0.10;;;20.60;99.90;;;;;;4974734;28;20149;-81
2022/07/11 10:23:25;;;;;;;1.10;0.10;;;20.70;99.90;;;;;;4992396;28;20053;-81
2022/07/11 10:26:30;;;;;;;0.80;0.20;;;20.90;99.90;;;;;;4993534;28;20050;-82
2022/07/11 10:29:26;;;;;;;2.77;0.27;;;21.30;99.90;;;;;;4991895;28;20042;-81
2022/07/11 10:32:13;;;;;;;1.40;0.45;;;21.70;99.90;;;;;;4992291;28;20046;-81
2022/07/11 10:35:10;;;;;;;0.57;0.10;;;21.60;99.90;;;;;;4996141;28;20053;-81
2022/07/11 10:37:58;;;;;;;0.65;0.20;;;21.70;99.90;;;;;;4992761;28;20046;-81
2022/07/11 10:40:55;;;;;;;0.40;0.10;;;21.70;99.90;;;;;;4991433;28;20054;-81
2022/07/11 10:43:49;;;;;;;0.65;0.30;;;21.80;99.90;;;;;;4993088;28;20065;-81
2022/07/11 10:46:35;;;;;;;0.20;0.05;;;21.80;99.90;;;;;;4975189;28;20055;-81
2022/07/11 10:49:37;;;;;;;2.50;0.20;;;21.70;99.90;;;;;;4974595;28;20526;-80
2022/07/11 10:52:24;;;;;;;0.98;0.10;;;21.70;99.90;;;;;;4992419;28;20061;-80
2022/07/11 10:56:04;;;;;;;5.60;1.10;;;21.70;99.90;;;;;;4974562;28;20136;-80
2022/07/11 10:59:19;;;;;;;1.52;0.13;;;21.70;99.90;;;;;;4922192;28;20054;-80
2022/07/11 11:02:12;;;;;;;0.30;0.10;;;21.80;99.90;;;;;;4996731;28;20056;-81
2022/07/11 11:05:00;;;;;;;2.13;0.20;;;21.90;99.90;;;;;;4995180;28;20364;-81
2022/07/11 11:07:46;;;;;;;1.08;0.20;;;21.90;99.90;;;;;;4974194;28;20442;-80
2022/07/11 11:10:34;;;;;;;1.08;0.28;;;22.00;99.90;;;;;;4993313;28;20050;-81
2022/07/11 11:13:20;;;;;;;0.20;0.00;;;21.90;99.90;;;;;;4974984;28;20069;-81
2022/07/11 11:16:22;;;;;;;0.38;0.10;;;21.70;99.90;;;;;;4974975;28;20137;-81
2022/07/11 11:19:46;;;;;;;1.20;0.20;;;21.60;99.90;;;;;;4975614;28;20054;-81
2022/07/11 11:22:33;;;;;;;1.23;0.30;;;21.70;99.90;;;;;;4977514;28;20084;-82
2022/07/11 11:25:21;;;;;;;1.55;0.30;;;21.60;99.90;;;;;;4992536;28;20090;-80
2022/07/11 11:28:08;;;;;;;5.20;0.30;;;21.70;99.90;;;;;;4992239;28;20047;-81
2022/07/11 11:30:58;;;;;;;1.73;0.20;;;21.60;99.90;;;;;;4976060;28;20050;-81
2022/07/11 11:33:47;;;;;;;2.42;0.20;;;21.70;99.90;;;;;;4978901;28;20101;-81
2022/07/11 11:36:33;;;;;;;0.82;0.20;;;21.90;99.90;;;;;;4995564;28;20495;-81
2022/07/11 11:39:28;;;;;;;0.55;0.20;;;21.50;99.90;;;;;;4978992;28;20475;-81
2022/07/11 11:42:16;;;;;;;0.88;0.20;;;21.40;99.90;;;;;;4996840;28;20197;-81
2022/07/11 11:45:07;;;;;;;0.77;0.20;;;21.60;99.90;;;;;;4978812;28;20539;-81
2022/07/11 11:47:53;;;;;;;1.17;0.25;;;21.60;99.90;;;;;;4995757;28;20058;-81
2022/07/11 11:50:39;;;;;;;1.30;0.40;;;21.60;99.90;;;;;;4995618;28;20406;-81
2022/07/11 11:53:25;;;;;;;1.77;0.20;;;21.60;99.90;;;;;;4978044;28;20419;-82
2022/07/11 11:56:22;;;;;;;1.15;0.20;;;21.60;99.90;;;;;;4996217;28;20042;-80
2022/07/11 11:59:12;;;;;;;0.43;0.20;;;21.70;99.90;;;;;;4978879;28;20050;-81
2022/07/11 12:01:58;;;;;;;0.77;0.30;;;21.80;99.90;;;;;;4965572;28;20050;-80
2022/07/11 12:04:44;;;;;;;0.68;0.20;;;21.60;99.90;;;;;;4996092;28;20117;-81
2022/07/11 12:07:30;;;;;;;0.57;0.17;;;21.40;99.90;;;;;;4975873;28;20050;-81
2022/07/11 12:10:16;;;;;;;1.02;0.30;;;21.60;99.90;;;;;;4994569;28;20058;-81
2022/07/11 12:13:03;;;;;;;0.32;0.20;;;21.60;99.90;;;;;;4995127;28;20057;-81
2022/07/11 12:18:55;;;;;;;1.20;0.37;;;21.60;99.90;;;;;;4977855;28;20826;-81
2022/07/11 12:21:44;;;;;;;1.15;0.40;;;21.40;99.90;;;;;;4994384;28;20086;-82
2022/07/11 12:24:31;;;;;;;1.05;0.35;;;21.20;99.90;;;;;;4994656;28;20525;-81
2022/07/11 12:27:21;;;;;;;0.70;0.40;;;20.90;99.90;;;;;;4978802;28;20089;-82
2022/07/11 12:30:22;;;;;;;0.98;0.25;;;20.90;99.90;;;;;;4996472;28;20057;-82
2022/07/11 12:33:13;;;;;;;0.68;0.30;;;20.90;99.90;;;;;;4996325;28;20125;-82
2022/07/11 12:36:01;;;;;;;1.10;0.32;;;21.20;99.90;;;;;;4995983;28;20570;-82
2022/07/11 12:38:51;;;;;;;0.88;0.32;;;21.20;99.90;;;;;;4994467;28;20061;-81
2022/07/11 12:41:37;;;;;;;1.85;0.40;;;21.20;99.90;;;;;;4977273;28;20052;-82
2022/07/11 12:47:32;;;;;;;1.38;0.47;;;21.10;99.90;;;;;;4976787;28;20817;-81
2022/07/11 12:50:25;;;;;;;3.30;0.73;;;21.20;99.90;;;;;;4963599;28;20117;-81
2022/07/11 12:53:16;;;;;;;3.20;0.45;;;21.10;99.90;;;;;;4977522;28;20426;-81
2022/07/11 12:56:02;;;;;;;2.10;0.40;;;20.90;99.90;;;;;;4994469;28;20116;-82
2022/07/11 12:58:48;;;;;;;3.47;0.47;;;20.90;99.90;;;;;;4993871;28;20108;-81
2022/07/11 13:01:35;;;;;;;0.65;0.40;;;21.00;99.90;;;;;;4995540;28;20160;-81
2022/07/11 13:04:38;;;;;;;1.27;0.35;;;21.10;99.90;;;;;;4995350;28;20541;-81
2022/07/11 13:10:51;;;;;;;0.88;0.30;;;21.40;99.90;;;;;;4994439;28;20050;-81
2022/07/11 13:13:38;;;;;;;0.52;0.30;;;21.50;99.90;;;;;;4993867;28;20483;-81
2022/07/11 13:16:24;;;;;;;1.27;0.32;;;21.40;99.90;;;;;;4994560;28;20050;-81
2022/07/11 13:19:10;;;;;;;0.90;0.30;;;21.40;99.90;;;;;;4978799;28;20050;-80
2022/07/11 13:21:56;;;;;;;3.13;0.50;;;21.80;99.90;;;;;;4977989;28;20053;-81
2022/07/11 13:24:42;;;;;;;1.40;0.40;;;21.90;99.90;;;;;;4975847;28;20061;-81
2022/07/11 13:27:29;;;;;;;0.68;0.38;;;22.10;99.90;;;;;;4976838;28;20116;-81
2022/07/11 13:30:20;;;;;;;0.50;0.30;;;22.20;99.90;;;;;;4976123;28;20416;-81
2022/07/11 13:33:06;;;;;;;0.98;0.50;;;22.50;99.90;;;;;;4976833;28;20050;-81
2022/07/11 13:35:53;;;;;;;0.52;0.30;;;22.30;99.90;;;;;;4978143;28;20058;-83
2022/07/11 13:38:39;;;;;;;1.25;0.40;;;22.30;99.90;;;;;;4994384;28;20580;-81
2022/07/11 13:41:25;;;;;;;1.88;0.50;;;22.10;99.90;;;;;;4965417;28;20054;-81
2022/07/11 13:44:11;;;;;;;1.15;0.40;;;21.90;99.90;;;;;;4976359;28;20050;-80
2022/07/11 13:46:58;;;;;;;0.55;0.20;;;21.70;99.90;;;;;;4975924;28;20557;-81
2022/07/11 13:49:44;;;;;;;0.25;0.25;;;21.70;99.90;;;;;;4993498;28;20054;-81
2022/07/11 13:52:30;;;;;;;1.10;0.60;;;22.00;99.90;;;;;;4976978;28;20113;-82
2022/07/11 13:55:22;;;;;;;2.17;0.50;;;21.90;99.90;;;;;;4993098;28;20050;-82
2022/07/11 13:58:23;;;;;;;0.20;0.20;;;21.70;99.90;;;;;;4995543;28;20050;-82
2022/07/11 14:01:10;;;;;;;0.70;0.30;;;21.80;99.90;;;;;;4975520;28;20058;-81
2022/07/11 14:03:57;;;;;;;4.13;0.40;;;22.20;99.90;;;;;;4975200;28;20058;-81
2022/07/11 14:06:43;;;;;;;1.60;0.30;;;22.50;99.90;;;;;;4992787;28;20050;-81
2022/07/11 14:09:29;;;;;;;1.58;0.40;;;22.40;99.90;;;;;;4976386;28;20065;-81
2022/07/11 14:12:15;;;;;;;1.25;0.43;;;22.30;99.90;;;;;;4974611;28;20054;-81
2022/07/11 14:15:02;;;;;;;0.60;0.30;;;22.30;99.90;;;;;;4976237;28;20050;-82
2022/07/11 14:17:48;;;;;;;2.75;0.63;;;22.40;99.90;;;;;;4979365;28;20467;-83
2022/07/11 14:20:34;;;;;;;0.20;0.20;;;22.50;99.90;;;;;;4993191;28;20058;-83
2022/07/11 14:23:21;;;;;;;0.85;0.40;;;22.50;99.90;;;;;;4995850;28;20521;-82
2022/07/11 14:26:07;;;;;;;3.35;0.43;;;22.50;99.90;;;;;;4992841;28;20056;-81
2022/07/11 14:28:53;;;;;;;0.63;0.20;;;22.40;99.90;;;;;;4976550;28;20053;-81
2022/07/11 14:31:39;;;;;;;0.10;0.10;;;22.20;99.90;;;;;;4975580;28;20201;-81
2022/07/11 14:34:26;;;;;;;0.88;0.35;;;22.30;99.90;;;;;;4975652;28;20051;-82
2022/07/11 14:37:12;;;;;;;1.08;0.20;;;22.50;99.90;;;;;;4974877;28;20802;-82
2022/07/11 14:39:58;;;;;;;1.02;0.40;;;22.50;99.90;;;;;;4991951;28;20060;-82
2022/07/11 14:42:44;;;;;;;1.23;0.30;;;22.20;99.90;;;;;;4992531;28;20061;-82
2022/07/11 14:45:30;;;;;;;0.25;0.20;;;22.00;99.90;;;;;;4992883;28;20065;-81
2022/07/11 14:48:16;;;;;;;0.52;0.20;;;22.00;99.90;;;;;;4992733;28;20058;-82
2022/07/11 14:51:02;;;;;;;2.47;0.35;;;21.70;99.90;;;;;;4974833;28;20050;-83